Upcoming Events

Cross the Rockies  September 25, 2021 23:00z
[OTS] Kris McCamis | CZEG_CTR C1 OTS  October 3, 2021 20:00z
VFRiday!  October 16, 2021 01:00z

  Top Controllers this Month

Kris McCamis 1540069
53:31

Tony Koch 1106668
36:00

Dave LaPlace 861872
34:26

Ethan Best 1458012
31:28

Thomas Smith 1505007
30:48

  Online Controllers

No controllers online.

  View Our Airspace

  Weather

CYYC - Calgary International Airport   VFR
CYYC 231400Z 02008KT 330V030 35SM FEW045 FEW100 SCT120 BKN260 05/M00 A3015 RMK SC1AC1AS2CI2 SC TR /ACSL ALQDS/ PRESRR SLP238

CYEG - Edmonton International Airport   VFR
CYEG 231400Z 26009KT 20SM FEW110 FEW210 SCT250 04/01 A3011 RMK AC1CC1CI2 ACC ASOCTD CONTRAILS SLP217

CYXY - Whitehorse / Erik Nielsen International Airport   VFR
CYXY 231400Z 16013KT 15SM FEW025 FEW050 OVC080 03/M01 A2985 RMK SC1SC1AS6 SLP144

CYZF - Yellowknife International Airport   MVFR
CYZF 231400Z 36006KT 15SM FEW004 BKN018 OVC027 08/08 A2977 RMK SC1SC6SC1 SLP093

CYMM - Fort McMurray Airport   VFR
CYMM 231400Z AUTO 27010G15KT 9SM CLR 05/M00 A2987 RMK SLP130

CYQF - Red Deer Regional Airport   VFR
CYQF 231400Z AUTO 35007KT 9SM SCT180 06/M01 A3014 RMK SLP231

CZVL - Edmonton / Villeneuve Airport   VFR
CZVL 231400Z AUTO 25007KT 9SM CLR 05/01 A3010 RMK SLP210

CYBW - Calgary / Springbank Airport   VFR
CYBW 231400Z AUTO VRB06KT 9SM FEW150 BKN180 04/M00 A3015 RMK SLP232

CYOD - CFB Cold Lake   VFR
CYOD 231400Z 29012G17KT 15SM FEW140 07/M01 A2998 RMK AC1 DA1158FT SLP165